Adolfowo, Poland

6:58 PM CEST on May 26, 2017 (GMT +0200)
Stacja Meteo, Wolsztyn | | Change Station

Elev 0 ft 52.12 °N, 16.11 °E | Updated 11 minutes ago

Partly Cloudy
Partly Cloudy
72.8 °F
Feels Like 77 °F
N
2.0
Wind Variable Wind from West
Gusts 12.0 mph

Today
High -- | Low -- °F
--% Chance of Precip.
Yesterday
High -- | Low -- °F
Precip. -- in
Pressure 30.06 in
Visibility 6.2 miles
Clouds Scattered Clouds 4700 ft
Heat Index 77 °F
Dew Point 55 °F
Humidity 54%
Rainfall 0.00 in
Snow Depth Not available.
4:46 AM 8:59 PM
New Moon, 1% visible
METAR EPPO 261630Z 31008KT 9999 SCT047 23/12 Q1018
Pressure 30.06 in
Visibility 6.2 miles
Clouds Scattered Clouds 4700 ft
Heat Index 77 °F
Dew Point 55 °F
Humidity 54%
Rainfall 0.00 in
Snow Depth Not available.
4:46 AM 8:59 PM
New Moon, 1% visible
METAR EPPO 261630Z 31008KT 9999 SCT047 23/12 Q1018

Get Severe Weather Alerts

Thanks for signing up!

Be on the lookout for a verification email in your inbox.

You'll start receiving the daily forecast at 6 AM.

×

10-Day Weather Forecast

×

Almanac

Astronomy

May. 26, 2017 Rise Set
Actual Time
Civil Twilight
Nautical Twilight
Astronomical Twilight
Moon
Length of Visible Light
Length of Day
Tomorrow will be .
, % of the Moon is Illuminated

Today's Extremes

Country Highs Country Lows

Community

WunderPhotos

Category 6

Welcome to Category 6. This is the collective home for Weather Underground's featured writeups by Dr. Jeff Masters (right), Bob Henson (left), Chris Burt, and other regular contributors.

Nearby

Air Quality

  Air Quality AQ Index Pollutant
Not available.

Snow Depth

Station Depth Elevation

Earthquake Activity

City Distance Mag. Time & Date
Minimum magnitude displayed is 2.5.

Coastal Water Temperatures

Place Temperature

Stations

Nearby Weather Stations

Station Location Temp. Windchill Dew Point Humidity Wind Precip. Elev Updated Type